Time;durP1;ratioP1;P1;durP2;ratioP2;P2;SDS_P1;SDS_P2;PMS_P1;PMS_P2;Temp;Humidity;BMP_temperature;BMP_pressure;BME280_temperature;BME280_humidity;BME280_pressure;Samples;Min_cycle;Max_cycle;Signal;HPM_P1;HPM_P2
2022/03/08 00:01:50;;;;;;;16.92;11.25;;;;;;;;;;4994198;28;96170;-74
2022/03/08 00:04:16;;;;;;;21.00;11.38;;;;;;;;;;4998822;28;92537;-74
2022/03/08 00:06:43;;;;;;;18.23;11.07;;;;;;;;;;5002235;28;93200;-74
2022/03/08 00:09:09;;;;;;;22.40;12.13;;;;;;;;;;4994081;28;94215;-74
2022/03/08 00:11:36;;;;;;;23.70;12.02;;;;;;;;;;5002961;28;92669;-74
2022/03/08 00:14:03;;;;;;;23.95;12.40;;;;;;;;;;4992227;28;93423;-75
2022/03/08 00:16:29;;;;;;;17.50;10.52;;;;;;;;;;5000422;28;92606;-74
2022/03/08 00:18:55;;;;;;;19.15;11.18;;;;;;;;;;4992323;28;93167;-74
2022/03/08 00:21:22;;;;;;;17.98;11.77;;;;;;;;;;4999027;28;93442;-74
2022/03/08 00:23:48;;;;;;;17.08;10.85;;;;;;;;;;5010475;28;92792;-74
2022/03/08 00:26:15;;;;;;;18.33;11.88;;;;;;;;;;4995202;28;94796;-72
2022/03/08 00:28:42;;;;;;;20.88;11.40;;;;;;;;;;4999726;28;93444;-72
2022/03/08 00:31:08;;;;;;;20.20;11.88;;;;;;;;;;4999203;28;92519;-72
2022/03/08 00:33:35;;;;;;;21.42;11.75;;;;;;;;;;4991666;28;93145;-72
2022/03/08 00:36:01;;;;;;;21.25;12.00;;;;;;;;;;4999456;28;94495;-72
2022/03/08 00:38:28;;;;;;;18.45;11.48;;;;;;;;;;5015378;28;92790;-73
2022/03/08 00:40:54;;;;;;;15.90;10.80;;;;;;;;;;5011383;28;94532;-72
2022/03/08 00:43:21;;;;;;;17.75;11.52;;;;;;;;;;5012938;28;91701;-73
2022/03/08 00:45:47;;;;;;;21.75;12.07;;;;;;;;;;4998233;28;93133;-74
2022/03/08 00:48:13;;;;;;;17.88;11.20;;;;;;;;;;4991622;28;93407;-75
2022/03/08 00:50:40;;;;;;;19.90;12.15;;;;;;;;;;4990416;28;94822;-73
2022/03/08 00:53:06;;;;;;;18.73;11.05;;;;;;;;;;4991733;28;95579;-73
2022/03/08 00:55:33;;;;;;;17.65;11.35;;;;;;;;;;4991942;28;94578;-73
2022/03/08 00:58:00;;;;;;;21.10;11.00;;;;;;;;;;4993845;28;93817;-73
2022/03/08 01:00:27;;;;;;;17.15;10.73;;;;;;;;;;5001685;28;93270;-73
2022/03/08 01:02:54;;;;;;;16.55;10.98;;;;;;;;;;5003488;28;92486;-73
2022/03/08 01:05:20;;;;;;;16.65;11.27;;;;;;;;;;5001652;28;93182;-73
2022/03/08 01:07:47;;;;;;;17.85;11.15;;;;;;;;;;4993191;28;93776;-73
2022/03/08 01:10:15;;;;;;;19.48;11.10;;;;;;;;;;5000453;28;93746;-73
2022/03/08 01:12:42;;;;;;;16.73;10.57;;;;;;;;;;5003354;28;93201;-73
2022/03/08 01:15:09;;;;;;;16.42;11.20;;;;;;;;;;4996094;28;95843;-73
2022/03/08 01:17:35;;;;;;;19.85;11.13;;;;;;;;;;4992103;28;93193;-74
2022/03/08 01:20:02;;;;;;;17.90;11.70;;;;;;;;;;4991737;28;92838;-74
2022/03/08 01:22:29;;;;;;;17.20;10.93;;;;;;;;;;5014135;28;93474;-73
2022/03/08 01:24:55;;;;;;;20.38;11.30;;;;;;;;;;5005144;28;93604;-73
2022/03/08 01:27:21;;;;;;;15.40;10.48;;;;;;;;;;4991443;28;93578;-73
2022/03/08 01:29:47;;;;;;;23.70;12.95;;;;;;;;;;5001604;28;92445;-73
2022/03/08 01:32:14;;;;;;;19.23;11.40;;;;;;;;;;5009873;28;93378;-74
2022/03/08 01:34:40;;;;;;;14.55;10.35;;;;;;;;;;5008006;28;94676;-74
2022/03/08 01:37:06;;;;;;;17.23;11.80;;;;;;;;;;4991368;28;92453;-74
2022/03/08 01:39:33;;;;;;;17.75;11.50;;;;;;;;;;4990187;28;95840;-74
2022/03/08 01:42:06;;;;;;;22.98;12.32;;;;;;;;;;4990365;28;93369;-74
2022/03/08 01:44:32;;;;;;;23.38;11.57;;;;;;;;;;4994191;28;92637;-74
2022/03/08 01:46:59;;;;;;;17.52;11.57;;;;;;;;;;5007881;28;92529;-74
2022/03/08 01:49:25;;;;;;;18.77;11.48;;;;;;;;;;5009993;28;93131;-73
2022/03/08 01:51:51;;;;;;;18.83;11.63;;;;;;;;;;4995090;28;94245;-74
2022/03/08 01:54:18;;;;;;;16.38;11.13;;;;;;;;;;5002679;28;93213;-74
2022/03/08 01:56:44;;;;;;;15.88;10.23;;;;;;;;;;4995272;28;92018;-74
2022/03/08 01:59:10;;;;;;;17.23;11.70;;;;;;;;;;4994080;28;92511;-75
2022/03/08 02:01:37;;;;;;;18.00;11.35;;;;;;;;;;4998849;28;93465;-74
2022/03/08 02:04:03;;;;;;;17.50;11.27;;;;;;;;;;5009322;28;94894;-74
2022/03/08 02:06:29;;;;;;;18.10;10.35;;;;;;;;;;5011766;28;94298;-74
2022/03/08 02:08:56;;;;;;;20.02;11.52;;;;;;;;;;5012723;28;92480;-74
2022/03/08 02:11:23;;;;;;;16.60;11.18;;;;;;;;;;4997810;28;92969;-74
2022/03/08 02:13:49;;;;;;;15.90;10.43;;;;;;;;;;5013232;28;92543;-74
2022/03/08 02:16:15;;;;;;;17.63;11.35;;;;;;;;;;4997007;28;93292;-74
2022/03/08 02:18:41;;;;;;;16.95;10.57;;;;;;;;;;4974661;28;93254;-74
2022/03/08 02:21:08;;;;;;;19.27;10.45;;;;;;;;;;5011790;28;93770;-74
2022/03/08 02:23:35;;;;;;;17.73;10.98;;;;;;;;;;5014645;28;93323;-74
2022/03/08 02:26:01;;;;;;;16.50;10.63;;;;;;;;;;5005558;28;93230;-74
2022/03/08 02:28:29;;;;;;;13.65;9.80;;;;;;;;;;4972089;28;94886;-74
2022/03/08 02:30:55;;;;;;;17.92;10.43;;;;;;;;;;4995349;28;95786;-74
2022/03/08 02:33:22;;;;;;;17.00;11.23;;;;;;;;;;5002421;28;93732;-74
2022/03/08 02:35:48;;;;;;;19.48;10.02;;;;;;;;;;5004850;28;92949;-74
2022/03/08 02:38:14;;;;;;;17.02;10.18;;;;;;;;;;4993858;28;93279;-74
2022/03/08 02:40:42;;;;;;;16.13;10.35;;;;;;;;;;5007936;28;93464;-74
2022/03/08 02:43:09;;;;;;;17.33;10.70;;;;;;;;;;5012807;28;92467;-74
2022/03/08 02:45:36;;;;;;;21.30;9.88;;;;;;;;;;4994446;28;95053;-74
2022/03/08 02:48:02;;;;;;;15.20;9.60;;;;;;;;;;4997022;28;94584;-73
2022/03/08 02:50:29;;;;;;;17.42;10.35;;;;;;;;;;4994769;28;93712;-73
2022/03/08 02:52:56;;;;;;;15.85;9.95;;;;;;;;;;4996945;28;95915;-73
2022/03/08 02:55:24;;;;;;;17.67;10.13;;;;;;;;;;5010103;28;92445;-73
2022/03/08 02:57:50;;;;;;;17.20;9.25;;;;;;;;;;5007570;28;93460;-74
2022/03/08 03:00:19;;;;;;;14.57;9.55;;;;;;;;;;5003056;28;93252;-73
2022/03/08 03:02:45;;;;;;;16.98;9.80;;;;;;;;;;5004308;28;92634;-74
2022/03/08 03:05:12;;;;;;;11.90;9.13;;;;;;;;;;5000961;28;92567;-73
2022/03/08 03:07:39;;;;;;;16.73;9.30;;;;;;;;;;5003885;28;93908;-74
2022/03/08 03:10:10;;;;;;;15.30;10.02;;;;;;;;;;5003675;28;92722;-74
2022/03/08 03:12:37;;;;;;;21.77;9.98;;;;;;;;;;5003492;28;93597;-74
2022/03/08 03:15:04;;;;;;;16.23;9.48;;;;;;;;;;5013067;28;92804;-74
2022/03/08 03:17:31;;;;;;;14.15;9.35;;;;;;;;;;5013065;28;94741;-74
2022/03/08 03:19:57;;;;;;;18.45;9.88;;;;;;;;;;4993825;28;93544;-74
2022/03/08 03:22:23;;;;;;;14.57;9.90;;;;;;;;;;5007115;28;92448;-74
2022/03/08 03:24:49;;;;;;;14.93;9.65;;;;;;;;;;5000954;28;92999;-74
2022/03/08 03:27:16;;;;;;;15.13;10.40;;;;;;;;;;4996952;28;93678;-74
2022/03/08 03:29:42;;;;;;;17.75;10.00;;;;;;;;;;5003927;28;92545;-74
2022/03/08 03:32:08;;;;;;;14.48;10.30;;;;;;;;;;5015526;28;94282;-74
2022/03/08 03:34:35;;;;;;;19.48;10.02;;;;;;;;;;5014008;28;91922;-75
2022/03/08 03:37:01;;;;;;;14.98;9.38;;;;;;;;;;5000717;28;92446;-75
2022/03/08 03:39:27;;;;;;;15.35;9.43;;;;;;;;;;4999347;28;93305;-74
2022/03/08 03:41:54;;;;;;;13.20;8.70;;;;;;;;;;5010539;28;94795;-73
2022/03/08 03:44:20;;;;;;;13.60;8.77;;;;;;;;;;5009770;28;95351;-74
2022/03/08 03:46:47;;;;;;;13.70;8.43;;;;;;;;;;4993816;28;93411;-74
2022/03/08 03:49:14;;;;;;;13.48;8.70;;;;;;;;;;5012387;28;92541;-74
2022/03/08 03:51:40;;;;;;;14.68;7.82;;;;;;;;;;5013248;28;93830;-74
2022/03/08 03:54:07;;;;;;;18.25;8.77;;;;;;;;;;4996546;28;94521;-74
2022/03/08 03:56:33;;;;;;;12.07;7.50;;;;;;;;;;4997186;28;93251;-74
2022/03/08 03:58:59;;;;;;;10.88;7.30;;;;;;;;;;5010173;28;94941;-74
2022/03/08 04:01:26;;;;;;;10.45;7.28;;;;;;;;;;4996041;28;92558;-74
2022/03/08 04:03:52;;;;;;;12.85;7.45;;;;;;;;;;5007696;28;93104;-74
2022/03/08 04:06:19;;;;;;;12.38;6.82;;;;;;;;;;4999655;28;95817;-74
2022/03/08 04:08:45;;;;;;;14.18;7.15;;;;;;;;;;5002418;28;92863;-74
2022/03/08 04:11:12;;;;;;;10.80;7.00;;;;;;;;;;5005543;28;95626;-73
2022/03/08 04:13:38;;;;;;;12.77;7.22;;;;;;;;;;4996332;28;93629;-74
2022/03/08 04:16:05;;;;;;;13.32;7.30;;;;;;;;;;4993091;28;93200;-74
2022/03/08 04:18:31;;;;;;;12.45;6.78;;;;;;;;;;4993218;28;93472;-74
2022/03/08 04:20:57;;;;;;;10.43;6.40;;;;;;;;;;4993092;28;92599;-74
2022/03/08 04:23:24;;;;;;;8.77;5.95;;;;;;;;;;5010266;28;91649;-74
2022/03/08 04:25:50;;;;;;;11.85;7.32;;;;;;;;;;5008930;28;92425;-74
2022/03/08 04:28:16;;;;;;;11.07;6.75;;;;;;;;;;5002390;28;92482;-74
2022/03/08 04:30:42;;;;;;;12.48;7.43;;;;;;;;;;4997663;28;94920;-74
2022/03/08 04:33:09;;;;;;;15.00;7.43;;;;;;;;;;5003232;28;93216;-74
2022/03/08 04:35:35;;;;;;;10.18;7.38;;;;;;;;;;5015718;28;92512;-74
2022/03/08 04:38:02;;;;;;;13.82;7.20;;;;;;;;;;5010679;28;92997;-75
2022/03/08 04:40:28;;;;;;;10.70;6.88;;;;;;;;;;5008534;28;92585;-74
2022/03/08 04:42:55;;;;;;;8.55;6.35;;;;;;;;;;4992078;28;93961;-74
2022/03/08 04:45:22;;;;;;;8.82;6.25;;;;;;;;;;5001893;28;93270;-74
2022/03/08 04:47:49;;;;;;;8.73;5.90;;;;;;;;;;4994335;28;91822;-74
2022/03/08 04:50:16;;;;;;;15.70;6.38;;;;;;;;;;4996416;28;93000;-74
2022/03/08 04:52:44;;;;;;;9.68;6.57;;;;;;;;;;5001367;28;93191;-73
2022/03/08 04:55:10;;;;;;;10.52;6.35;;;;;;;;;;5001236;28;95641;-74
2022/03/08 04:57:37;;;;;;;9.30;6.53;;;;;;;;;;4998425;28;96677;-74
2022/03/08 05:00:04;;;;;;;10.73;6.78;;;;;;;;;;5001984;28;92730;-74
2022/03/08 05:02:31;;;;;;;12.43;7.00;;;;;;;;;;5002326;28;93213;-74
2022/03/08 05:04:57;;;;;;;10.82;7.07;;;;;;;;;;4992323;28;93297;-74
2022/03/08 05:07:23;;;;;;;10.07;7.78;;;;;;;;;;4995664;28;92524;-74
2022/03/08 05:09:49;;;;;;;15.35;8.30;;;;;;;;;;4991152;28;94342;-74
2022/03/08 05:12:16;;;;;;;21.02;8.93;;;;;;;;;;5012758;28;92740;-74
2022/03/08 05:14:42;;;;;;;9.82;6.88;;;;;;;;;;4995334;28;92412;-75
2022/03/08 05:17:08;;;;;;;11.23;7.07;;;;;;;;;;5003203;28;93004;-74
2022/03/08 05:19:35;;;;;;;9.88;6.97;;;;;;;;;;5004675;28;96088;-74
2022/03/08 05:22:01;;;;;;;9.25;6.30;;;;;;;;;;5013632;28;95552;-74
2022/03/08 05:24:28;;;;;;;13.35;6.35;;;;;;;;;;5011869;28;93589;-75
2022/03/08 05:26:54;;;;;;;9.40;5.82;;;;;;;;;;5011311;28;92436;-74
2022/03/08 05:29:20;;;;;;;10.32;6.63;;;;;;;;;;5003232;28;93144;-74
2022/03/08 05:31:47;;;;;;;8.55;6.15;;;;;;;;;;4995620;28;93245;-74
2022/03/08 05:34:14;;;;;;;10.02;6.45;;;;;;;;;;4999637;28;92591;-74
2022/03/08 05:36:41;;;;;;;15.20;6.68;;;;;;;;;;4994779;28;96607;-74
2022/03/08 05:39:07;;;;;;;9.93;6.72;;;;;;;;;;4997436;28;93323;-73
2022/03/08 05:41:34;;;;;;;11.27;6.20;;;;;;;;;;5018972;28;92493;-73
2022/03/08 05:44:00;;;;;;;9.52;6.20;;;;;;;;;;4998926;28;96815;-73
2022/03/08 05:46:26;;;;;;;10.20;6.35;;;;;;;;;;4995808;28;92459;-73
2022/03/08 05:48:53;;;;;;;8.82;5.95;;;;;;;;;;4995787;28;95869;-74
2022/03/08 05:51:19;;;;;;;7.93;6.20;;;;;;;;;;4993400;28;94144;-74
2022/03/08 05:53:45;;;;;;;8.05;5.93;;;;;;;;;;4995335;28;93032;-74
2022/03/08 05:56:12;;;;;;;8.70;6.05;;;;;;;;;;4982333;28;93247;-74
2022/03/08 05:58:38;;;;;;;9.23;6.28;;;;;;;;;;5015163;28;93586;-74
2022/03/08 06:01:04;;;;;;;10.07;6.30;;;;;;;;;;4997084;28;91886;-74
2022/03/08 06:03:31;;;;;;;12.15;6.22;;;;;;;;;;5001112;28;93327;-74
2022/03/08 06:05:57;;;;;;;10.30;6.15;;;;;;;;;;5001624;28;92938;-74
2022/03/08 06:08:24;;;;;;;15.60;6.80;;;;;;;;;;4993862;28;95002;-74
2022/03/08 06:10:50;;;;;;;10.95;6.65;;;;;;;;;;5000781;28;93296;-74
2022/03/08 06:13:16;;;;;;;10.90;6.43;;;;;;;;;;4994900;28;92521;-75
2022/03/08 06:15:43;;;;;;;10.15;6.32;;;;;;;;;;4995011;28;93159;-74
2022/03/08 06:18:10;;;;;;;10.73;6.43;;;;;;;;;;4994968;28;93610;-74
2022/03/08 06:20:37;;;;;;;12.90;7.38;;;;;;;;;;4994677;28;92484;-74
2022/03/08 06:23:03;;;;;;;15.27;6.63;;;;;;;;;;4997838;28;93151;-74
2022/03/08 06:25:29;;;;;;;12.80;6.57;;;;;;;;;;4994048;28;91914;-74
2022/03/08 06:27:56;;;;;;;7.68;6.00;;;;;;;;;;4994742;28;92514;-74
2022/03/08 06:30:22;;;;;;;9.32;6.75;;;;;;;;;;4995018;28;94308;-74
2022/03/08 06:32:48;;;;;;;7.47;6.13;;;;;;;;;;4993712;28;95031;-74
2022/03/08 06:35:15;;;;;;;11.63;7.10;;;;;;;;;;4994149;28;95572;-75
2022/03/08 06:37:41;;;;;;;9.60;6.60;;;;;;;;;;4994685;28;93427;-74
2022/03/08 06:40:07;;;;;;;13.40;6.50;;;;;;;;;;4996147;28;93149;-74
2022/03/08 06:42:36;;;;;;;11.70;6.60;;;;;;;;;;5009629;28;92365;-74
2022/03/08 06:45:03;;;;;;;10.57;6.93;;;;;;;;;;5005507;28;93232;-74
2022/03/08 06:47:30;;;;;;;10.02;7.43;;;;;;;;;;4995092;28;94325;-74
2022/03/08 06:49:56;;;;;;;10.98;7.25;;;;;;;;;;5002706;28;92875;-74
2022/03/08 06:52:22;;;;;;;11.50;7.13;;;;;;;;;;5014283;28;92647;-74
2022/03/08 06:54:48;;;;;;;15.82;7.97;;;;;;;;;;5008346;28;93974;-74
2022/03/08 06:57:15;;;;;;;13.38;7.45;;;;;;;;;;4998082;28;95714;-72
2022/03/08 06:59:41;;;;;;;15.98;8.23;;;;;;;;;;4999539;28;92450;-73
2022/03/08 07:02:08;;;;;;;12.95;7.28;;;;;;;;;;4990576;28;93331;-73
2022/03/08 07:04:34;;;;;;;12.48;7.30;;;;;;;;;;4992065;28;93425;-71
2022/03/08 07:07:01;;;;;;;14.77;7.57;;;;;;;;;;4996790;28;92502;-72
2022/03/08 07:09:27;;;;;;;15.43;7.50;;;;;;;;;;4994127;28;93845;-72
2022/03/08 07:11:54;;;;;;;19.17;7.43;;;;;;;;;;5004260;28;92793;-73
2022/03/08 07:14:20;;;;;;;12.02;8.43;;;;;;;;;;4998293;28;93258;-73
2022/03/08 07:16:47;;;;;;;13.25;7.57;;;;;;;;;;4999969;28;93530;-72
2022/03/08 07:19:13;;;;;;;18.48;7.78;;;;;;;;;;5013712;28;92535;-72
2022/03/08 07:21:41;;;;;;;14.90;7.65;;;;;;;;;;4996334;28;96078;-72
2022/03/08 07:24:07;;;;;;;13.20;7.28;;;;;;;;;;5007856;28;94042;-72
2022/03/08 07:26:34;;;;;;;11.40;7.63;;;;;;;;;;4994501;28;92743;-73
2022/03/08 07:29:00;;;;;;;15.25;7.93;;;;;;;;;;4996284;28;93249;-73
2022/03/08 07:31:27;;;;;;;21.95;8.07;;;;;;;;;;4995056;28;92496;-74
2022/03/08 07:33:53;;;;;;;27.00;8.38;;;;;;;;;;4994246;28;93603;-72
2022/03/08 07:36:19;;;;;;;142.77;13.65;;;;;;;;;;4994312;28;93179;-73
2022/03/08 07:38:45;;;;;;;42.65;9.40;;;;;;;;;;4994145;28;91746;-72
2022/03/08 07:41:12;;;;;;;16.98;8.05;;;;;;;;;;5001364;28;92494;-74
2022/03/08 07:43:39;;;;;;;12.70;7.65;;;;;;;;;;4993088;28;93436;-72
2022/03/08 07:46:06;;;;;;;9.85;7.50;;;;;;;;;;4996093;28;94895;-72
2022/03/08 07:48:33;;;;;;;10.82;6.90;;;;;;;;;;5013926;28;95569;-72
2022/03/08 07:50:59;;;;;;;9.63;7.05;;;;;;;;;;5016525;28;93710;-73
2022/03/08 07:53:26;;;;;;;11.52;6.72;;;;;;;;;;5012037;28;93182;-73
2022/03/08 07:55:52;;;;;;;10.50;6.82;;;;;;;;;;4996103;28;94456;-73
2022/03/08 07:58:19;;;;;;;8.13;6.40;;;;;;;;;;4993805;28;92456;-73
2022/03/08 08:00:46;;;;;;;16.05;7.75;;;;;;;;;;4986202;28;93386;-73
2022/03/08 08:03:12;;;;;;;10.63;7.13;;;;;;;;;;4995120;28;96461;-73
2022/03/08 08:05:39;;;;;;;11.18;6.85;;;;;;;;;;4996432;28;92520;-74
2022/03/08 08:08:06;;;;;;;10.38;6.70;;;;;;;;;;5013462;28;93110;-73
2022/03/08 08:10:33;;;;;;;12.75;6.38;;;;;;;;;;4996504;28;95854;-73
2022/03/08 08:12:59;;;;;;;11.70;6.82;;;;;;;;;;5008328;28;92459;-73
2022/03/08 08:15:26;;;;;;;10.77;6.15;;;;;;;;;;4993471;28;94470;-73
2022/03/08 08:17:52;;;;;;;7.70;6.20;;;;;;;;;;4992407;28;92563;-73
2022/03/08 08:20:20;;;;;;;12.05;6.05;;;;;;;;;;4976868;28;94300;-73
2022/03/08 08:22:46;;;;;;;11.77;7.07;;;;;;;;;;4979543;28;94234;-73
2022/03/08 08:25:12;;;;;;;8.38;6.50;;;;;;;;;;4992689;28;92717;-74
2022/03/08 08:27:38;;;;;;;13.15;6.00;;;;;;;;;;5003780;28;94119;-73
2022/03/08 08:30:06;;;;;;;13.35;7.20;;;;;;;;;;5011582;28;93117;-73
2022/03/08 08:32:32;;;;;;;16.98;6.32;;;;;;;;;;5014656;28;92570;-74
2022/03/08 08:34:58;;;;;;;9.77;6.32;;;;;;;;;;5010465;28;96068;-73
2022/03/08 08:37:25;;;;;;;9.18;6.60;;;;;;;;;;4983482;28;92851;-73
2022/03/08 08:39:52;;;;;;;10.70;6.50;;;;;;;;;;4994596;28;93239;-73
2022/03/08 08:42:19;;;;;;;28.58;6.95;;;;;;;;;;5011187;28;93271;-72
2022/03/08 08:44:45;;;;;;;8.68;6.30;;;;;;;;;;5011237;28;92638;-72
2022/03/08 08:47:12;;;;;;;9.73;6.32;;;;;;;;;;5012561;28;93163;-73
2022/03/08 08:49:38;;;;;;;9.68;6.53;;;;;;;;;;5012871;28;93213;-73
2022/03/08 08:52:04;;;;;;;10.23;6.13;;;;;;;;;;5004544;28;91831;-73
2022/03/08 08:54:31;;;;;;;14.50;6.78;;;;;;;;;;4994372;28;93361;-73
2022/03/08 08:56:57;;;;;;;9.98;6.30;;;;;;;;;;4992072;28;92488;-73
2022/03/08 08:59:23;;;;;;;13.93;6.63;;;;;;;;;;4990705;28;94892;-73
2022/03/08 09:01:50;;;;;;;9.18;5.95;;;;;;;;;;4992635;28;94420;-73
2022/03/08 09:04:16;;;;;;;8.52;5.55;;;;;;;;;;4991852;28;92591;-73
2022/03/08 09:06:42;;;;;;;12.00;7.30;;;;;;;;;;4998604;28;92893;-73
2022/03/08 09:09:09;;;;;;;13.90;6.65;;;;;;;;;;5006911;28;93468;-71
2022/03/08 09:11:36;;;;;;;12.25;6.40;;;;;;;;;;4992217;28;93410;-75
2022/03/08 09:14:04;;;;;;;8.48;5.57;;;;;;;;;;5001847;28;93253;-73
2022/03/08 09:16:30;;;;;;;10.05;6.28;;;;;;;;;;5002597;28;93035;-72
2022/03/08 09:18:57;;;;;;;9.90;5.78;;;;;;;;;;4991748;28;92476;-73
2022/03/08 09:21:23;;;;;;;9.15;5.78;;;;;;;;;;4993716;28;94447;-73
2022/03/08 09:23:49;;;;;;;18.48;6.13;;;;;;;;;;5000601;28;95111;-72
2022/03/08 09:26:16;;;;;;;11.88;5.38;;;;;;;;;;4999367;28;95373;-73
2022/03/08 09:28:42;;;;;;;15.45;5.75;;;;;;;;;;4991725;28;93585;-72
2022/03/08 09:31:08;;;;;;;7.97;5.47;;;;;;;;;;4992364;28;92417;-72
2022/03/08 09:33:35;;;;;;;11.20;6.22;;;;;;;;;;4997058;28;93827;-72
2022/03/08 09:36:01;;;;;;;11.63;5.88;;;;;;;;;;4996790;28;92914;-73
2022/03/08 09:38:28;;;;;;;13.68;5.57;;;;;;;;;;4995454;28;92486;-71
2022/03/08 09:40:54;;;;;;;11.20;5.28;;;;;;;;;;4992338;28;92680;-71
2022/03/08 09:43:21;;;;;;;9.77;5.60;;;;;;;;;;5007139;28;92802;-70
2022/03/08 09:45:47;;;;;;;22.95;6.18;;;;;;;;;;4991153;28;95437;-71
2022/03/08 09:48:13;;;;;;;8.55;4.82;;;;;;;;;;4989018;28;95637;-71
2022/03/08 09:50:40;;;;;;;8.05;5.18;;;;;;;;;;4992230;28;92477;-73
2022/03/08 09:53:09;;;;;;;8.27;5.28;;;;;;;;;;5010328;28;93576;-73
2022/03/08 09:55:35;;;;;;;12.52;5.00;;;;;;;;;;5003497;28;93575;-71
2022/03/08 09:58:02;;;;;;;10.35;4.57;;;;;;;;;;5010807;28;92891;-72
2022/03/08 10:00:29;;;;;;;10.85;4.85;;;;;;;;;;5014633;28;93663;-71
2022/03/08 10:02:56;;;;;;;9.20;4.72;;;;;;;;;;5009770;28;92486;-72
2022/03/08 10:05:25;;;;;;;8.25;4.65;;;;;;;;;;5011756;28;93146;-71
2022/03/08 10:08:07;;;;;;;5.72;4.90;;;;;;;;;;5014265;28;94561;-73
2022/03/08 10:10:41;;;;;;;10.57;4.28;;;;;;;;;;5015333;28;92519;-72
2022/03/08 10:13:31;;;;;;;8.70;4.38;;;;;;;;;;5013102;28;96198;-71
2022/03/08 10:16:05;;;;;;;12.00;5.10;;;;;;;;;;5005600;28;93103;-71
2022/03/08 10:18:32;;;;;;;5.60;3.90;;;;;;;;;;4995044;28;92488;-71
2022/03/08 10:20:58;;;;;;;7.78;3.90;;;;;;;;;;4997088;28;93313;-71
2022/03/08 10:23:25;;;;;;;9.00;4.05;;;;;;;;;;4995410;28;92822;-72
2022/03/08 10:25:52;;;;;;;8.35;4.15;;;;;;;;;;4994518;28;93105;-73
2022/03/08 10:28:18;;;;;;;10.93;4.22;;;;;;;;;;4994369;28;92391;-71
2022/03/08 10:30:44;;;;;;;6.03;3.80;;;;;;;;;;4995135;28;91948;-71
2022/03/08 10:33:19;;;;;;;10.45;4.20;;;;;;;;;;4994476;28;92717;-71
2022/03/08 10:35:47;;;;;;;8.85;4.15;;;;;;;;;;4993958;28;93322;-72
2022/03/08 10:38:13;;;;;;;12.15;3.90;;;;;;;;;;4979337;28;95631;-71
2022/03/08 10:40:40;;;;;;;12.55;4.10;;;;;;;;;;4976888;28;95732;-71
2022/03/08 10:43:11;;;;;;;10.73;4.35;;;;;;;;;;4996190;28;93727;-71
2022/03/08 10:45:40;;;;;;;6.57;3.72;;;;;;;;;;4980812;28;93175;-72
2022/03/08 10:48:07;;;;;;;10.10;3.63;;;;;;;;;;4994159;28;93577;-71
2022/03/08 10:50:35;;;;;;;7.50;3.65;;;;;;;;;;5004275;28;92437;-71
2022/03/08 10:53:04;;;;;;;9.45;3.13;;;;;;;;;;5005752;28;94315;-72
2022/03/08 10:55:31;;;;;;;5.45;3.72;;;;;;;;;;4993030;28;93736;-72
2022/03/08 10:57:59;;;;;;;10.75;3.70;;;;;;;;;;4993421;28;93323;-71
2022/03/08 11:00:29;;;;;;;13.52;3.80;;;;;;;;;;5000356;28;93678;-71
2022/03/08 11:02:57;;;;;;;8.23;3.65;;;;;;;;;;4995082;28;96153;-71
2022/03/08 11:05:25;;;;;;;13.15;3.50;;;;;;;;;;4997083;28;92616;-71
2022/03/08 11:07:52;;;;;;;4.35;3.17;;;;;;;;;;4995003;28;94471;-70
2022/03/08 11:10:19;;;;;;;5.40;3.28;;;;;;;;;;4993419;28;92897;-71
2022/03/08 11:12:46;;;;;;;6.07;3.03;;;;;;;;;;4993405;28;92390;-71
2022/03/08 11:15:14;;;;;;;8.45;3.20;;;;;;;;;;4996360;28;94583;-71
2022/03/08 11:17:42;;;;;;;9.85;2.83;;;;;;;;;;4986371;28;92412;-73
2022/03/08 11:20:09;;;;;;;7.50;3.65;;;;;;;;;;4993786;28;93231;-71
2022/03/08 11:22:37;;;;;;;3.83;2.90;;;;;;;;;;4993856;28;93552;-72
2022/03/08 11:25:07;;;;;;;13.70;3.60;;;;;;;;;;4992637;28;92549;-73
2022/03/08 11:27:48;;;;;;;5.03;3.03;;;;;;;;;;4995225;28;95362;-73
2022/03/08 11:30:16;;;;;;;11.93;3.13;;;;;;;;;;4996531;28;92515;-72
2022/03/08 11:32:50;;;;;;;11.25;3.42;;;;;;;;;;4993667;28;93239;-74
2022/03/08 11:35:22;;;;;;;5.40;2.35;;;;;;;;;;4999119;28;93372;-74
2022/03/08 11:37:49;;;;;;;9.65;2.90;;;;;;;;;;4993510;28;92454;-75
2022/03/08 11:40:17;;;;;;;8.95;3.10;;;;;;;;;;4992887;28;92848;-75
2022/03/08 11:42:45;;;;;;;8.98;2.80;;;;;;;;;;4993707;28;94532;-74
2022/03/08 11:45:21;;;;;;;9.07;3.37;;;;;;;;;;4994534;28;91756;-75
2022/03/08 11:47:56;;;;;;;8.38;2.90;;;;;;;;;;4993570;28;93682;-74
2022/03/08 11:50:23;;;;;;;3.97;2.90;;;;;;;;;;4996765;28;94269;-75
2022/03/08 11:53:10;;;;;;;3.13;2.83;;;;;;;;;;4992126;28;94801;-74
2022/03/08 11:55:39;;;;;;;15.45;3.38;;;;;;;;;;4988944;28;93551;-74
2022/03/08 11:58:09;;;;;;;4.50;2.85;;;;;;;;;;4993351;28;92512;-74
2022/03/08 12:00:40;;;;;;;6.18;2.83;;;;;;;;;;4993612;28;93877;-74
2022/03/08 12:03:11;;;;;;;5.70;3.03;;;;;;;;;;4990829;28;92676;-74
2022/03/08 12:05:37;;;;;;;6.00;2.53;;;;;;;;;;4993045;28;92431;-74
2022/03/08 12:08:23;;;;;;;3.95;3.00;;;;;;;;;;4992608;28;94306;-73
2022/03/08 12:10:50;;;;;;;9.68;3.15;;;;;;;;;;4993010;28;91765;-73
2022/03/08 12:13:35;;;;;;;3.95;3.03;;;;;;;;;;4995252;28;92580;-73
2022/03/08 12:16:10;;;;;;;10.13;3.17;;;;;;;;;;4993004;28;92482;-73
2022/03/08 12:18:41;;;;;;;5.55;3.33;;;;;;;;;;4991607;28;94846;-73
2022/03/08 12:21:17;;;;;;;6.72;3.20;;;;;;;;;;4992237;28;95568;-74
2022/03/08 12:23:50;;;;;;;10.38;3.70;;;;;;;;;;4992308;28;93473;-74
2022/03/08 12:26:25;;;;;;;7.18;2.90;;;;;;;;;;4992736;28;92546;-73
2022/03/08 12:29:07;;;;;;;8.50;3.05;;;;;;;;;;4992599;28;92714;-74
2022/03/08 12:31:53;;;;;;;5.30;3.17;;;;;;;;;;4992226;28;93269;-74
2022/03/08 12:34:39;;;;;;;9.10;3.17;;;;;;;;;;4995577;28;92480;-74
2022/03/08 12:37:26;;;;;;;10.60;3.22;;;;;;;;;;4993128;28;95363;-74
2022/03/08 12:40:00;;;;;;;7.63;3.63;;;;;;;;;;4976248;28;92429;-74
2022/03/08 12:42:47;;;;;;;3.33;3.00;;;;;;;;;;4973266;28;93983;-74
2022/03/08 12:45:17;;;;;;;11.40;3.20;;;;;;;;;;4974373;28;95942;-73
2022/03/08 12:47:43;;;;;;;8.27;3.50;;;;;;;;;;4992714;28;92545;-74
2022/03/08 12:50:12;;;;;;;9.30;3.40;;;;;;;;;;4992265;28;93332;-74
2022/03/08 12:52:44;;;;;;;8.25;3.25;;;;;;;;;;4991096;28;94548;-74
2022/03/08 12:55:15;;;;;;;8.25;3.53;;;;;;;;;;4992366;28;92483;-74
2022/03/08 12:57:46;;;;;;;6.30;3.55;;;;;;;;;;4995295;28;92394;-74
2022/03/08 13:00:24;;;;;;;5.55;3.90;;;;;;;;;;4992556;28;92480;-74
2022/03/08 13:02:51;;;;;;;7.03;3.53;;;;;;;;;;4992225;28;92038;-74
2022/03/08 13:05:22;;;;;;;7.70;3.45;;;;;;;;;;4991474;28;93438;-74
2022/03/08 13:07:50;;;;;;;8.75;3.55;;;;;;;;;;4991847;28;92551;-74
2022/03/08 13:10:17;;;;;;;4.03;3.17;;;;;;;;;;4990439;28;95137;-74
2022/03/08 13:12:48;;;;;;;12.20;4.07;;;;;;;;;;4992228;28;93122;-73
2022/03/08 13:15:16;;;;;;;9.10;4.28;;;;;;;;;;4989332;28;92769;-74
2022/03/08 13:17:43;;;;;;;11.48;4.47;;;;;;;;;;4972309;28;93203;-74
2022/03/08 13:20:22;;;;;;;7.70;3.65;;;;;;;;;;4974929;28;93451;-74
2022/03/08 13:22:48;;;;;;;6.78;3.72;;;;;;;;;;4972502;28;94265;-74
2022/03/08 13:25:15;;;;;;;7.55;3.45;;;;;;;;;;4972282;28;93361;-74
2022/03/08 13:27:47;;;;;;;5.57;3.55;;;;;;;;;;4990680;28;92551;-74
2022/03/08 13:30:14;;;;;;;7.43;3.90;;;;;;;;;;4992363;28;92738;-74
2022/03/08 13:32:40;;;;;;;10.02;3.70;;;;;;;;;;4990604;28;93451;-74
2022/03/08 13:35:07;;;;;;;12.85;4.55;;;;;;;;;;4990106;28;95037;-74
2022/03/08 13:37:49;;;;;;;11.18;3.88;;;;;;;;;;4992259;28;96522;-75
2022/03/08 13:40:25;;;;;;;8.32;4.38;;;;;;;;;;4990186;28;93299;-74
2022/03/08 13:42:52;;;;;;;11.43;4.00;;;;;;;;;;4997949;28;92440;-74
2022/03/08 13:45:39;;;;;;;10.30;4.22;;;;;;;;;;4995715;28;93072;-74
2022/03/08 13:48:07;;;;;;;8.85;5.05;;;;;;;;;;4995403;28;92486;-73
2022/03/08 13:50:33;;;;;;;9.30;4.35;;;;;;;;;;4995388;28;94195;-73
2022/03/08 13:53:07;;;;;;;7.60;4.75;;;;;;;;;;4994839;28;93084;-74
2022/03/08 13:55:40;;;;;;;8.15;4.22;;;;;;;;;;4995334;28;92442;-74
2022/03/08 13:58:07;;;;;;;8.52;4.70;;;;;;;;;;4995231;28;93234;-74
2022/03/08 14:00:35;;;;;;;5.28;4.50;;;;;;;;;;4993281;28;95901;-74
2022/03/08 14:03:03;;;;;;;6.30;4.90;;;;;;;;;;4994062;28;92843;-71
2022/03/08 14:05:29;;;;;;;10.50;4.93;;;;;;;;;;4997088;28;92523;-74
2022/03/08 14:08:00;;;;;;;11.57;4.63;;;;;;;;;;4994613;28;92390;-73
2022/03/08 14:10:26;;;;;;;;;;;;;;;;;;4995680;28;93171;-74
2022/03/08 14:12:52;;;;;;;11.55;4.43;;;;;;;;;;4995221;28;124563;-74
2022/03/08 14:15:20;;;;;;;14.60;4.43;;;;;;;;;;4995566;28;92445;-75
2022/03/08 14:17:47;;;;;;;8.00;4.35;;;;;;;;;;4994895;28;93147;-74
2022/03/08 14:20:17;;;;;;;11.57;4.55;;;;;;;;;;4994043;28;93587;-74
2022/03/08 14:23:00;;;;;;;10.13;4.90;;;;;;;;;;4995001;28;92547;-74
2022/03/08 14:25:26;;;;;;;7.43;4.38;;;;;;;;;;4993315;28;95056;-74
2022/03/08 14:27:52;;;;;;;8.00;3.92;;;;;;;;;;4976169;28;93751;-74
2022/03/08 14:30:23;;;;;;;7.82;4.75;;;;;;;;;;4974817;28;93350;-74
2022/03/08 14:32:49;;;;;;;7.85;4.90;;;;;;;;;;4973720;28;93719;-74
2022/03/08 14:35:17;;;;;;;8.95;4.43;;;;;;;;;;4974562;28;92492;-74